createdAt,value
2023-05-05T00:00:42.141Z,2963.00
2023-05-05T00:01:42.180Z,2953.00
2023-05-05T00:02:42.328Z,2964.00
2023-05-05T00:03:42.516Z,2945.00
2023-05-05T00:04:42.369Z,2957.00
2023-05-05T00:05:42.420Z,2949.00
2023-05-05T00:06:42.492Z,2952.00
2023-05-05T00:07:42.558Z,2946.00
2023-05-05T00:08:42.620Z,2938.00
2023-05-05T00:09:42.658Z,2938.00
2023-05-05T00:10:42.726Z,2941.00
2023-05-05T00:11:42.772Z,2947.00
2023-05-05T00:12:42.849Z,2935.00
2023-05-05T00:13:42.856Z,2926.00
2023-05-05T00:14:42.959Z,2930.00
2023-05-05T00:15:42.995Z,2936.00
2023-05-05T00:16:43.098Z,2933.00
2023-05-05T00:17:43.142Z,2933.00
2023-05-05T00:18:43.188Z,2930.00
2023-05-05T00:19:43.207Z,2928.00
2023-05-05T00:20:43.267Z,2929.00
2023-05-05T00:21:43.326Z,2931.00
2023-05-05T00:22:43.350Z,2925.00
2023-05-05T00:23:43.427Z,2928.00
2023-05-05T00:24:43.486Z,2929.00
2023-05-05T00:25:43.559Z,2921.00
2023-05-05T00:26:43.673Z,2920.00
2023-05-05T00:27:43.684Z,2920.00
2023-05-05T00:28:43.736Z,2928.00
2023-05-05T00:29:43.830Z,2911.00
2023-05-05T00:30:43.901Z,2909.00
2023-05-05T00:31:43.962Z,2911.00
2023-05-05T00:32:44.101Z,2913.00
2023-05-05T00:33:44.016Z,2908.00
2023-05-05T00:34:44.121Z,2896.00
2023-05-05T00:35:44.172Z,2909.00
2023-05-05T00:36:44.246Z,2914.00
2023-05-05T00:37:44.277Z,2907.00
2023-05-05T00:38:44.397Z,2898.00
2023-05-05T00:39:44.405Z,2901.00
2023-05-05T00:40:44.468Z,2905.00
2023-05-05T00:41:44.527Z,2902.00
2023-05-05T00:42:44.587Z,2908.00
2023-05-05T00:43:44.620Z,2901.00
2023-05-05T00:44:44.858Z,2892.00
2023-05-05T00:45:44.759Z,2888.00
2023-05-05T00:46:44.833Z,2879.00
2023-05-05T00:47:44.944Z,2890.00
2023-05-05T00:48:44.941Z,2887.00
2023-05-05T00:49:44.974Z,2884.00
2023-05-05T00:50:45.061Z,2897.00
2023-05-05T00:51:45.265Z,2890.00
2023-05-05T00:52:45.179Z,2884.00
2023-05-05T00:53:45.235Z,2888.00
2023-05-05T00:54:45.326Z,2889.00
2023-05-05T00:55:45.792Z,2881.00
2023-05-05T00:56:45.430Z,2873.00
2023-05-05T00:57:45.524Z,2868.00
2023-05-05T00:58:45.581Z,2869.00
2023-05-05T00:59:45.635Z,2869.00
2023-05-05T01:00:45.703Z,2873.00
2023-05-05T01:01:45.782Z,2875.00
2023-05-05T01:02:45.894Z,2871.00
2023-05-05T01:03:45.919Z,2875.00
2023-05-05T01:04:45.907Z,2863.00
2023-05-05T01:05:46.005Z,2862.00
2023-05-05T01:06:46.018Z,2869.00
2023-05-05T01:07:46.094Z,2852.00
2023-05-05T01:08:46.202Z,2856.00
2023-05-05T01:09:46.190Z,2852.00
2023-05-05T01:10:46.322Z,2861.00
2023-05-05T01:11:46.373Z,2863.00
2023-05-05T01:12:46.449Z,2861.00
2023-05-05T01:13:46.477Z,2858.00
2023-05-05T01:14:46.491Z,2847.00
2023-05-05T01:15:46.518Z,2856.00
2023-05-05T01:16:46.562Z,2853.00
2023-05-05T01:17:46.612Z,2848.00
2023-05-05T01:18:46.617Z,2848.00
2023-05-05T01:19:46.616Z,2845.00
2023-05-05T01:20:46.772Z,2856.00
2023-05-05T01:21:46.683Z,2841.00
2023-05-05T01:22:46.783Z,2856.00
2023-05-05T01:23:46.805Z,2837.00
2023-05-05T01:24:46.834Z,2839.00
2023-05-05T01:25:46.859Z,2829.00
2023-05-05T01:26:46.953Z,2830.00
2023-05-05T01:27:46.957Z,2839.00
2023-05-05T01:28:47.011Z,2820.00
2023-05-05T01:29:47.096Z,2836.00
2023-05-05T01:30:47.218Z,2833.00
2023-05-05T01:31:47.220Z,2836.00
2023-05-05T01:32:47.366Z,2823.00
2023-05-05T01:33:47.243Z,2831.00
2023-05-05T01:34:47.399Z,2821.00
2023-05-05T01:35:47.365Z,2827.00
2023-05-05T01:36:47.369Z,2815.00
2023-05-05T01:37:47.337Z,2816.00
2023-05-05T01:38:47.336Z,2816.00
2023-05-05T01:39:47.455Z,2827.00
2023-05-05T01:40:47.385Z,2823.00
2023-05-05T01:41:47.419Z,2807.00
2023-05-05T01:42:47.448Z,2819.00
2023-05-05T01:43:47.470Z,2809.00
2023-05-05T01:44:47.501Z,2819.00
2023-05-05T01:45:47.518Z,2807.00
2023-05-05T01:46:47.502Z,2810.00
2023-05-05T01:47:47.552Z,2813.00
2023-05-05T01:48:47.548Z,2795.00
2023-05-05T01:49:47.513Z,2810.00
2023-05-05T01:50:47.504Z,2806.00
2023-05-05T01:51:47.521Z,2797.00
2023-05-05T01:52:47.492Z,2806.00
2023-05-05T01:53:47.552Z,2796.00
2023-05-05T01:54:47.573Z,2798.00
2023-05-05T01:55:47.589Z,2792.00
2023-05-05T01:56:47.594Z,2804.00
2023-05-05T01:57:47.612Z,2790.00
2023-05-05T01:58:47.658Z,2794.00
2023-05-05T01:59:47.726Z,2795.00
2023-05-05T02:00:47.726Z,2801.00
2023-05-05T02:01:47.724Z,2794.00
2023-05-05T02:02:48.369Z,2793.00
2023-05-05T02:03:47.750Z,2795.00
2023-05-05T02:04:47.760Z,2778.00
2023-05-05T02:05:47.742Z,2788.00
2023-05-05T02:06:47.733Z,2782.00
2023-05-05T02:07:47.740Z,2772.00
2023-05-05T02:08:47.725Z,2785.00
2023-05-05T02:09:47.742Z,2781.00
2023-05-05T02:10:47.767Z,2779.00
2023-05-05T02:11:47.763Z,2777.00
2023-05-05T02:12:47.769Z,2786.00
2023-05-05T02:13:47.797Z,2777.00
2023-05-05T02:14:47.769Z,2772.00
2023-05-05T02:15:47.755Z,2774.00
2023-05-05T02:16:47.836Z,2762.00
2023-05-05T02:17:47.826Z,2772.00
2023-05-05T02:18:47.728Z,2767.00
2023-05-05T02:19:47.788Z,2767.00
2023-05-05T02:20:47.821Z,2763.00
2023-05-05T02:21:47.833Z,2764.00
2023-05-05T02:22:47.779Z,2754.00
2023-05-05T02:23:47.781Z,2776.00
2023-05-05T02:24:47.752Z,2760.00
2023-05-05T02:25:47.766Z,2753.00
2023-05-05T02:26:47.750Z,2755.00
2023-05-05T02:27:47.769Z,2747.00
2023-05-05T02:28:47.768Z,2760.00
2023-05-05T02:29:47.780Z,2760.00
2023-05-05T02:30:47.788Z,2757.00
2023-05-05T02:31:47.797Z,2751.00
2023-05-05T02:32:47.822Z,2744.00
2023-05-05T02:33:47.727Z,2754.00
2023-05-05T02:34:47.717Z,2752.00
2023-05-05T02:35:47.715Z,2741.00
2023-05-05T02:36:47.804Z,2740.00
2023-05-05T02:37:47.731Z,2740.00
2023-05-05T02:38:47.691Z,2744.00
2023-05-05T02:39:47.692Z,2743.00
2023-05-05T02:40:47.707Z,2746.00
2023-05-05T02:41:47.695Z,2735.00
2023-05-05T02:42:47.743Z,2735.00
2023-05-05T02:43:47.677Z,2725.00
2023-05-05T02:44:47.712Z,2725.00
2023-05-05T02:45:47.657Z,2736.00
2023-05-05T02:46:47.701Z,2725.00
2023-05-05T02:47:47.695Z,2723.00
2023-05-05T02:48:47.758Z,2724.00
2023-05-05T02:49:47.654Z,2741.00
2023-05-05T02:50:47.662Z,2720.00
2023-05-05T02:51:47.654Z,2715.00
2023-05-05T02:52:47.616Z,2715.00
2023-05-05T02:53:47.681Z,2714.00
2023-05-05T02:54:47.640Z,2715.00
2023-05-05T02:55:47.644Z,2717.00
2023-05-05T02:56:47.652Z,2712.00
2023-05-05T02:57:47.658Z,2718.00
2023-05-05T02:58:47.674Z,2709.00
2023-05-05T02:59:47.636Z,2713.00
2023-05-05T03:00:47.605Z,2715.00
2023-05-05T03:01:47.702Z,2708.00
2023-05-05T03:02:47.667Z,2706.00
2023-05-05T03:03:47.716Z,2708.00
2023-05-05T03:04:47.629Z,2710.00
2023-05-05T03:05:47.610Z,2706.00
2023-05-05T03:06:47.613Z,2711.00
2023-05-05T03:07:47.572Z,2697.00
2023-05-05T03:08:47.627Z,2706.00
2023-05-05T03:09:47.616Z,2709.00
2023-05-05T03:10:47.601Z,2708.00
2023-05-05T03:11:47.574Z,2682.00
2023-05-05T03:12:47.609Z,2709.00
2023-05-05T03:13:47.694Z,2691.00
2023-05-05T03:14:47.592Z,2688.00
2023-05-05T03:15:47.576Z,2681.00
2023-05-05T03:16:47.623Z,2694.00
2023-05-05T03:17:47.624Z,2684.00
2023-05-05T03:18:47.596Z,2682.00
2023-05-05T03:19:47.566Z,2676.00
2023-05-05T03:20:47.592Z,2694.00
2023-05-05T03:21:47.620Z,2673.00
2023-05-05T03:22:47.611Z,2696.00
2023-05-05T03:23:47.576Z,2681.00
2023-05-05T03:24:47.646Z,2665.00
2023-05-05T03:25:47.654Z,2683.00
2023-05-05T03:26:47.586Z,2664.00
2023-05-05T03:27:47.577Z,2671.00
2023-05-05T03:28:47.608Z,2665.00
2023-05-05T03:29:47.612Z,2668.00
2023-05-05T03:30:47.602Z,2662.00
2023-05-05T03:31:47.640Z,2668.00
2023-05-05T03:32:47.632Z,2667.00
2023-05-05T03:33:47.627Z,2675.00
2023-05-05T03:34:47.645Z,2661.00
2023-05-05T03:35:47.604Z,2655.00
2023-05-05T03:36:47.666Z,2654.00
2023-05-05T03:37:47.668Z,2658.00
2023-05-05T03:38:47.660Z,2661.00
2023-05-05T03:39:47.694Z,2648.00
2023-05-05T03:40:47.670Z,2640.00
2023-05-05T03:41:47.684Z,2647.00
2023-05-05T03:42:47.714Z,2655.00
2023-05-05T03:43:47.682Z,2630.00
2023-05-05T03:44:47.725Z,2645.00
2023-05-05T03:45:47.798Z,2656.00
2023-05-05T03:46:47.722Z,2640.00
2023-05-05T03:47:47.757Z,2649.00
2023-05-05T03:48:47.731Z,2636.00
2023-05-05T03:49:47.748Z,2631.00
2023-05-05T03:50:47.847Z,2633.00
2023-05-05T03:51:47.767Z,2640.00
2023-05-05T03:52:47.755Z,2624.00
2023-05-05T03:53:47.788Z,2636.00
2023-05-05T03:54:47.853Z,2626.00
2023-05-05T03:55:47.785Z,2630.00
2023-05-05T03:56:47.764Z,2620.00
2023-05-05T03:57:47.795Z,2631.00
2023-05-05T03:58:47.803Z,2632.00
2023-05-05T03:59:47.807Z,2630.00
2023-05-05T04:00:47.809Z,2620.00
2023-05-05T04:01:47.834Z,2623.00
2023-05-05T04:02:47.882Z,2625.00
2023-05-05T04:03:47.985Z,2619.00
2023-05-05T04:04:47.820Z,2615.00
2023-05-05T04:05:47.825Z,2624.00
2023-05-05T04:06:47.836Z,2620.00
2023-05-05T04:07:47.812Z,2613.00
2023-05-05T04:08:47.850Z,2614.00
2023-05-05T04:09:47.827Z,2607.00
2023-05-05T04:10:47.861Z,2610.00
2023-05-05T04:11:47.845Z,2606.00
2023-05-05T04:12:47.897Z,2598.00
2023-05-05T04:13:47.884Z,2594.00
2023-05-05T04:14:47.875Z,2605.00
2023-05-05T04:15:48.030Z,2590.00
2023-05-05T04:16:47.893Z,2590.00
2023-05-05T04:17:47.864Z,2585.00
2023-05-05T04:18:47.916Z,2591.00
2023-05-05T04:19:47.919Z,2588.00
2023-05-05T04:20:47.932Z,2586.00
2023-05-05T04:21:47.922Z,2585.00
2023-05-05T04:22:47.930Z,2583.00
2023-05-05T04:23:47.880Z,2586.00
2023-05-05T04:24:47.955Z,2564.00
2023-05-05T04:25:47.950Z,2563.00
2023-05-05T04:26:47.944Z,2562.00
2023-05-05T04:27:47.955Z,2559.00
2023-05-05T04:28:47.981Z,2554.00
2023-05-05T04:29:47.919Z,2557.00
2023-05-05T04:30:47.928Z,2550.00
2023-05-05T04:31:48.066Z,2556.00
2023-05-05T04:32:47.966Z,2541.00
2023-05-05T04:33:47.952Z,2545.00
2023-05-05T04:34:47.955Z,2536.00
2023-05-05T04:35:47.957Z,2547.00
2023-05-05T04:36:47.961Z,2551.00
2023-05-05T04:37:47.965Z,2547.00
2023-05-05T04:38:48.006Z,2536.00
2023-05-05T04:39:47.995Z,2523.00
2023-05-05T04:40:47.957Z,2542.00
2023-05-05T04:41:48.003Z,2527.00
2023-05-05T04:42:47.981Z,2530.00
2023-05-05T04:43:47.988Z,2521.00
2023-05-05T04:44:47.977Z,2522.00
2023-05-05T04:45:47.988Z,2511.00
2023-05-05T04:46:48.024Z,2525.00
2023-05-05T04:47:48.073Z,2518.00
2023-05-05T04:48:48.002Z,2503.00
2023-05-05T04:49:48.029Z,2512.00
2023-05-05T04:50:48.040Z,2506.00
2023-05-05T04:51:48.080Z,2508.00
2023-05-05T04:52:48.040Z,2500.00
2023-05-05T04:53:48.038Z,2504.00
2023-05-05T04:54:48.050Z,2497.00
2023-05-05T04:55:48.058Z,2502.00
2023-05-05T04:56:48.107Z,2488.00
2023-05-05T04:57:48.068Z,2500.00
2023-05-05T04:58:48.082Z,2495.00
2023-05-05T04:59:48.086Z,2500.00
2023-05-05T05:00:48.034Z,2486.00
2023-05-05T05:01:48.124Z,2494.00
2023-05-05T05:02:48.192Z,2511.00
2023-05-05T05:03:48.423Z,2488.00
2023-05-05T05:04:48.129Z,2488.00
2023-05-05T05:05:48.061Z,2487.00
2023-05-05T05:06:48.077Z,2492.00
2023-05-05T05:07:48.086Z,2485.00
2023-05-05T05:08:48.084Z,2479.00
2023-05-05T05:09:48.108Z,2475.00
2023-05-05T05:10:48.102Z,2475.00
2023-05-05T05:11:48.089Z,2488.00
2023-05-05T05:12:48.184Z,2475.00
2023-05-05T05:13:48.135Z,2472.00
2023-05-05T05:14:48.094Z,2470.00
2023-05-05T05:15:48.114Z,2481.00
2023-05-05T05:16:48.213Z,2471.00
2023-05-05T05:17:48.139Z,2466.00
2023-05-05T05:18:48.158Z,2456.00
2023-05-05T05:19:48.143Z,2465.00
2023-05-05T05:20:48.143Z,2459.00
2023-05-05T05:21:48.148Z,2456.00
2023-05-05T05:22:48.254Z,2474.00
2023-05-05T05:23:48.396Z,2447.00
2023-05-05T05:24:48.212Z,2443.00
2023-05-05T05:25:48.167Z,2449.00
2023-05-05T05:26:48.194Z,2452.00
2023-05-05T05:27:52.294Z,2429.00
2023-05-05T05:28:49.316Z,2431.00
2023-05-05T05:29:48.213Z,2434.00
2023-05-05T05:30:48.221Z,2439.00
2023-05-05T05:31:48.290Z,2429.00
2023-05-05T05:32:48.249Z,2369.00
2023-05-05T05:33:48.193Z,2330.00
2023-05-05T05:34:48.424Z,2274.00
2023-05-05T05:35:48.170Z,2252.00
2023-05-05T05:36:48.170Z,2220.00
2023-05-05T05:37:48.182Z,2183.00
2023-05-05T05:38:48.141Z,2139.00
2023-05-05T05:39:48.387Z,2149.00
2023-05-05T05:40:48.166Z,2170.00
2023-05-05T05:41:48.501Z,2168.00
2023-05-05T05:42:48.434Z,2161.00
2023-05-05T05:43:48.803Z,2173.00
2023-05-05T05:44:48.336Z,2177.00
2023-05-05T05:45:48.369Z,2143.00
2023-05-05T05:46:48.406Z,2159.00
2023-05-05T05:47:48.551Z,2220.00
2023-05-05T05:48:48.520Z,2258.00
2023-05-05T05:49:48.525Z,2278.00
2023-05-05T05:50:48.747Z,2257.00
2023-05-05T05:51:48.689Z,2243.00
2023-05-05T05:52:48.690Z,2259.00
2023-05-05T05:53:48.795Z,2294.00
2023-05-05T05:54:48.764Z,2269.00
2023-05-05T05:55:48.795Z,2248.00
2023-05-05T05:56:48.877Z,2264.00
2023-05-05T05:57:49.514Z,2502.00
2023-05-05T05:58:48.910Z,2623.00
2023-05-05T05:59:48.938Z,2455.00
2023-05-05T06:00:48.959Z,2449.00
2023-05-05T06:01:49.037Z,2437.00
2023-05-05T06:02:49.006Z,2374.00
2023-05-05T06:03:49.005Z,2355.00
2023-05-05T06:04:48.949Z,2335.00
2023-05-05T06:05:49.016Z,2342.00
2023-05-05T06:06:48.937Z,2360.00
2023-05-05T06:07:49.476Z,2334.00
2023-05-05T06:08:49.388Z,2326.00
2023-05-05T06:09:48.952Z,2324.00
2023-05-05T06:10:48.931Z,2336.00
2023-05-05T06:11:48.984Z,2355.00
2023-05-05T06:12:48.973Z,2377.00
2023-05-05T06:13:48.941Z,2363.00
2023-05-05T06:14:49.043Z,2412.00
2023-05-05T06:15:49.078Z,2384.00
2023-05-05T06:16:48.966Z,2383.00
2023-05-05T06:17:49.507Z,2364.00
2023-05-05T06:18:49.050Z,2378.00
2023-05-05T06:19:49.121Z,2359.00
2023-05-05T06:20:49.120Z,2327.00
2023-05-05T06:21:49.175Z,2349.00
2023-05-05T06:22:49.248Z,2335.00
2023-05-05T06:23:49.297Z,2355.00
2023-05-05T06:24:49.317Z,2323.00
2023-05-05T06:25:49.452Z,2309.00
2023-05-05T06:26:49.489Z,2314.00
2023-05-05T06:27:49.520Z,2279.00
2023-05-05T06:28:49.661Z,2285.00
2023-05-05T06:29:49.693Z,2272.00
2023-05-05T06:30:49.732Z,2269.00
2023-05-05T06:31:49.884Z,2275.00
2023-05-05T06:32:50.002Z,2303.00
2023-05-05T06:33:49.953Z,2290.00
2023-05-05T06:34:49.976Z,2280.00
2023-05-05T06:35:50.124Z,2294.00
2023-05-05T06:36:52.344Z,2279.00
2023-05-05T06:37:50.185Z,2299.00
2023-05-05T06:38:50.213Z,2208.00
2023-05-05T06:39:50.319Z,2202.00
2023-05-05T06:40:50.451Z,2166.00
2023-05-05T06:41:50.444Z,2116.00
2023-05-05T06:42:50.550Z,2214.00
2023-05-05T06:43:50.520Z,2175.00
2023-05-05T06:44:50.573Z,2163.00
2023-05-05T06:45:50.729Z,2139.00
2023-05-05T06:46:50.804Z,2151.00
2023-05-05T06:47:50.789Z,2245.00
2023-05-05T06:48:50.828Z,2177.00
2023-05-05T06:49:50.817Z,2181.00
2023-05-05T06:50:50.905Z,2182.00
2023-05-05T06:51:50.999Z,2216.00
2023-05-05T06:52:51.005Z,2184.00
2023-05-05T06:53:51.113Z,2178.00
2023-05-05T06:54:51.134Z,2201.00
2023-05-05T06:55:51.162Z,2176.00
2023-05-05T06:56:51.263Z,2170.00
2023-05-05T06:57:51.270Z,2165.00
2023-05-05T06:58:51.357Z,2130.00
2023-05-05T06:59:51.550Z,2139.00
2023-05-05T07:00:51.380Z,2142.00
2023-05-05T07:01:51.482Z,2126.00
2023-05-05T07:02:51.496Z,2101.00
2023-05-05T07:03:51.515Z,2087.00
2023-05-05T07:04:51.530Z,2085.00
2023-05-05T07:05:51.756Z,2104.00
2023-05-05T07:06:51.618Z,2075.00
2023-05-05T07:07:53.746Z,2083.00
2023-05-05T07:08:51.657Z,2104.00
2023-05-05T07:09:51.684Z,2113.00
2023-05-05T07:10:51.875Z,2121.00
2023-05-05T07:11:52.251Z,2119.00
2023-05-05T07:12:51.834Z,2138.00
2023-05-05T07:13:51.780Z,2155.00
2023-05-05T07:14:51.911Z,2119.00
2023-05-05T07:15:52.535Z,2146.00
2023-05-05T07:16:52.035Z,2140.00
2023-05-05T07:17:51.976Z,2160.00
2023-05-05T07:18:51.921Z,2149.00
2023-05-05T07:19:52.071Z,2165.00
2023-05-05T07:20:51.941Z,2169.00
2023-05-05T07:21:52.057Z,2152.00
2023-05-05T07:22:52.028Z,2150.00
2023-05-05T07:23:52.921Z,2142.00
2023-05-05T07:24:52.037Z,2120.00
2023-05-05T07:25:52.064Z,2159.00
2023-05-05T07:26:52.060Z,2137.00
2023-05-05T07:27:52.045Z,2130.00
2023-05-05T07:28:52.106Z,2180.00
2023-05-05T07:29:52.084Z,2193.00
2023-05-05T07:30:52.100Z,2206.00
2023-05-05T07:31:52.265Z,2188.00
2023-05-05T07:32:52.170Z,2200.00
2023-05-05T07:33:52.198Z,2207.00
2023-05-05T07:34:52.129Z,2208.00
2023-05-05T07:35:54.486Z,1984.00
2023-05-05T07:36:52.265Z,1850.00
2023-05-05T07:37:52.244Z,1749.00
2023-05-05T07:38:52.390Z,1741.00
2023-05-05T07:39:52.441Z,1778.00
2023-05-05T07:40:52.465Z,1797.00
2023-05-05T07:41:52.500Z,1808.00
2023-05-05T07:42:52.608Z,1832.00
2023-05-05T07:43:52.615Z,1867.00
2023-05-05T07:44:52.716Z,1891.00
2023-05-05T07:45:52.800Z,1914.00
2023-05-05T07:46:52.723Z,1942.00
2023-05-05T07:47:52.903Z,1965.00
2023-05-05T07:48:52.740Z,1993.00
2023-05-05T07:49:52.733Z,2008.00
2023-05-05T07:50:53.033Z,2030.00
2023-05-05T07:51:52.768Z,2000.00
2023-05-05T07:52:59.278Z,1977.00
2023-05-05T07:53:53.782Z,1978.00
2023-05-05T07:54:52.780Z,1976.00
2023-05-05T07:55:52.789Z,1967.00
2023-05-05T07:56:52.764Z,1972.00
2023-05-05T07:57:52.768Z,1977.00
2023-05-05T07:58:52.815Z,1997.00
2023-05-05T07:59:52.787Z,2000.00
2023-05-05T08:00:52.731Z,2019.00
2023-05-05T08:01:54.823Z,2013.00
2023-05-05T08:02:52.799Z,1994.00
2023-05-05T08:03:52.983Z,2007.00
2023-05-05T08:04:52.703Z,2007.00
2023-05-05T08:05:52.761Z,1976.00
2023-05-05T08:06:52.723Z,2005.00
2023-05-05T08:07:52.769Z,1998.00
2023-05-05T08:08:52.738Z,1997.00
2023-05-05T08:09:52.779Z,1946.00
2023-05-05T08:10:53.530Z,1963.00
2023-05-05T08:11:52.783Z,1991.00
2023-05-05T08:12:52.845Z,1984.00
2023-05-05T08:13:52.802Z,2004.00
2023-05-05T08:14:52.810Z,2033.00
2023-05-05T08:15:52.899Z,2023.00
2023-05-05T08:16:52.898Z,2019.00
2023-05-05T08:17:52.935Z,2035.00
2023-05-05T08:18:53.012Z,2029.00
2023-05-05T08:19:53.019Z,2049.00
2023-05-05T08:20:53.034Z,2037.00
2023-05-05T08:21:53.079Z,2058.00
2023-05-05T08:22:53.143Z,2053.00
2023-05-05T08:23:53.260Z,2073.00
2023-05-05T08:24:53.293Z,2076.00
2023-05-05T08:25:53.416Z,1912.00
2023-05-05T08:26:53.370Z,1823.00
2023-05-05T08:27:53.403Z,1454.00
2023-05-05T08:28:53.452Z,1361.00
2023-05-05T08:29:53.447Z,1194.00
2023-05-05T08:30:53.438Z,1060.00
2023-05-05T08:31:53.462Z,1027.00
2023-05-05T08:32:53.529Z,925.00
2023-05-05T08:33:53.486Z,845.00
2023-05-05T08:34:53.472Z,811.00
2023-05-05T08:35:53.585Z,740.00
2023-05-05T08:36:53.594Z,627.00
2023-05-05T08:37:53.561Z,603.00
2023-05-05T08:38:53.613Z,584.00
2023-05-05T08:39:53.602Z,580.00
2023-05-05T08:40:53.670Z,612.00
2023-05-05T08:41:53.681Z,580.00
2023-05-05T08:42:53.631Z,590.00
2023-05-05T08:43:53.665Z,600.00
2023-05-05T08:44:53.757Z,511.00
2023-05-05T08:45:53.807Z,574.00
2023-05-05T08:46:53.850Z,552.00
2023-05-05T08:47:53.963Z,532.00
2023-05-05T08:48:54.060Z,515.00
2023-05-05T08:49:54.000Z,512.00
2023-05-05T08:50:54.039Z,478.00
2023-05-05T08:51:54.220Z,530.00
2023-05-05T08:52:54.174Z,555.00
2023-05-05T08:53:54.177Z,555.00
2023-05-05T08:54:54.219Z,556.00
2023-05-05T08:55:54.279Z,527.00
2023-05-05T08:56:54.325Z,516.00
2023-05-05T08:57:54.418Z,500.00
2023-05-05T08:58:54.462Z,516.00
2023-05-05T08:59:54.564Z,525.00
2023-05-05T09:00:54.590Z,560.00
2023-05-05T09:01:54.678Z,500.00
2023-05-05T09:02:54.836Z,527.00
2023-05-05T09:03:54.763Z,499.00
2023-05-05T09:04:54.808Z,548.00
2023-05-05T09:05:54.871Z,552.00
2023-05-05T09:06:55.035Z,546.00
2023-05-05T09:07:55.013Z,542.00
2023-05-05T09:08:55.625Z,542.00
2023-05-05T09:09:54.996Z,529.00
2023-05-05T09:10:55.043Z,515.00
2023-05-05T09:11:55.058Z,524.00
2023-05-05T09:12:55.175Z,538.00
2023-05-05T09:13:55.167Z,541.00
2023-05-05T09:14:55.839Z,547.00
2023-05-05T09:15:55.237Z,534.00
2023-05-05T09:16:55.275Z,532.00
2023-05-05T09:17:55.321Z,524.00
2023-05-05T09:18:55.304Z,547.00
2023-05-05T09:19:55.411Z,541.00
2023-05-05T09:20:56.361Z,500.00
2023-05-05T09:21:55.415Z,507.00
2023-05-05T09:22:55.488Z,507.00
2023-05-05T09:23:57.066Z,527.00
2023-05-05T09:24:55.571Z,543.00
2023-05-05T09:25:55.549Z,546.00
2023-05-05T09:26:56.866Z,536.00
2023-05-05T09:27:55.527Z,485.00
2023-05-05T09:28:55.456Z,491.00
2023-05-05T09:29:55.476Z,506.00
2023-05-05T09:30:55.530Z,507.00
2023-05-05T09:31:55.550Z,530.00
2023-05-05T09:32:55.644Z,566.00
2023-05-05T09:33:55.738Z,608.00
2023-05-05T09:34:55.687Z,578.00
2023-05-05T09:35:55.686Z,591.00
2023-05-05T09:36:55.671Z,621.00
2023-05-05T09:37:55.860Z,632.00
2023-05-05T09:38:56.747Z,699.00
2023-05-05T09:39:55.765Z,688.00
2023-05-05T09:40:55.769Z,790.00
2023-05-05T09:41:55.842Z,869.00
2023-05-05T09:42:55.883Z,932.00
2023-05-05T09:43:55.944Z,966.00
2023-05-05T09:44:57.852Z,1016.00
2023-05-05T09:45:56.060Z,1042.00
2023-05-05T09:46:56.634Z,1127.00
2023-05-05T09:47:59.710Z,1152.00
2023-05-05T09:48:55.936Z,1154.00
2023-05-05T09:49:55.992Z,1168.00
2023-05-05T09:50:55.974Z,1217.00
2023-05-05T09:51:56.165Z,1296.00
2023-05-05T09:52:55.943Z,1454.00
2023-05-05T09:53:55.957Z,1492.00
2023-05-05T09:54:55.972Z,1564.00
2023-05-05T09:55:55.964Z,1643.00
2023-05-05T09:56:55.969Z,1653.00
2023-05-05T09:57:56.010Z,1660.00
2023-05-05T09:58:57.621Z,1678.00
2023-05-05T09:59:55.906Z,1417.00
2023-05-05T10:00:56.063Z,1261.00
2023-05-05T10:01:55.903Z,1446.00
2023-05-05T10:02:55.883Z,1519.00
2023-05-05T10:03:55.925Z,1669.00
2023-05-05T10:04:55.841Z,1787.00
2023-05-05T10:05:55.910Z,1834.00
2023-05-05T10:06:55.855Z,1805.00
2023-05-05T10:07:55.849Z,1793.00
2023-05-05T10:08:55.814Z,1788.00
2023-05-05T10:09:55.800Z,1853.00
2023-05-05T10:10:55.827Z,1549.00
2023-05-05T10:11:55.853Z,1487.00
2023-05-05T10:12:55.934Z,1572.00
2023-05-05T10:13:55.741Z,1648.00
2023-05-05T10:14:55.754Z,1605.00
2023-05-05T10:15:55.821Z,1273.00
2023-05-05T10:16:55.765Z,1474.00
2023-05-05T10:18:05.839Z,1555.00
2023-05-05T10:18:57.928Z,1559.00
2023-05-05T10:19:55.711Z,1579.00
2023-05-05T10:20:56.119Z,1641.00
2023-05-05T10:21:55.737Z,1825.00
2023-05-05T10:22:55.746Z,1939.00
2023-05-05T10:23:55.752Z,1907.00
2023-05-05T10:24:55.700Z,1679.00
2023-05-05T10:25:55.719Z,1798.00
2023-05-05T10:26:55.723Z,1536.00
2023-05-05T10:27:55.714Z,1620.00
2023-05-05T10:28:55.668Z,1650.00
2023-05-05T10:29:55.685Z,1298.00
2023-05-05T10:30:55.684Z,945.00
2023-05-05T10:31:55.683Z,1197.00
2023-05-05T10:33:07.906Z,1245.00
2023-05-05T10:33:56.775Z,1250.00
2023-05-05T10:34:55.616Z,1270.00
2023-05-05T10:35:55.694Z,1374.00
2023-05-05T10:36:55.692Z,1496.00
2023-05-05T10:37:55.654Z,1685.00
2023-05-05T10:38:55.621Z,1774.00
2023-05-05T10:39:55.621Z,1415.00
2023-05-05T10:40:55.548Z,1452.00
2023-05-05T10:41:55.579Z,1562.00
2023-05-05T10:42:55.573Z,1478.00
2023-05-05T10:43:55.637Z,1283.00
2023-05-05T10:44:55.580Z,1408.00
2023-05-05T10:45:55.628Z,1550.00
2023-05-05T10:46:55.568Z,1483.00
2023-05-05T10:47:55.535Z,1538.00
2023-05-05T10:48:55.545Z,1417.00
2023-05-05T10:49:55.520Z,1141.00
2023-05-05T10:50:57.513Z,1113.00
2023-05-05T10:51:55.647Z,1309.00
2023-05-05T10:52:55.614Z,1422.00
2023-05-05T10:53:56.582Z,1427.00
2023-05-05T10:54:55.549Z,1461.00
2023-05-05T10:55:55.575Z,1459.00
2023-05-05T10:56:55.602Z,1566.00
2023-05-05T10:57:55.568Z,1529.00
2023-05-05T10:59:00.307Z,1580.00
2023-05-05T10:59:56.930Z,1453.00
2023-05-05T11:00:55.551Z,1122.00
2023-05-05T11:01:55.565Z,1237.00
2023-05-05T11:02:55.749Z,1383.00
2023-05-05T11:03:55.734Z,1002.00
2023-05-05T11:04:55.549Z,923.00
2023-05-05T11:05:55.479Z,1005.00
2023-05-05T11:06:55.538Z,1212.00
2023-05-05T11:07:55.476Z,1353.00
2023-05-05T11:08:55.560Z,1293.00
2023-05-05T11:09:55.551Z,1017.00
2023-05-05T11:10:55.597Z,1196.00
2023-05-05T11:11:55.705Z,1104.00
2023-05-05T11:12:55.837Z,1124.00
2023-05-05T11:13:55.792Z,1309.00
2023-05-05T11:14:55.867Z,1480.00
2023-05-05T11:15:56.576Z,1523.00
2023-05-05T11:16:56.008Z,1149.00
2023-05-05T11:17:56.065Z,1105.00
2023-05-05T11:18:57.006Z,1110.00
2023-05-05T11:19:56.029Z,672.00
2023-05-05T11:20:56.079Z,783.00
2023-05-05T11:21:55.989Z,765.00
2023-05-05T11:22:55.935Z,625.00
2023-05-05T11:23:55.917Z,701.00
2023-05-05T11:24:55.973Z,550.00
2023-05-05T11:25:55.941Z,445.00
2023-05-05T11:26:55.949Z,508.00
2023-05-05T11:27:55.980Z,598.00
2023-05-05T11:28:56.038Z,663.00
2023-05-05T11:29:56.096Z,769.00
2023-05-05T11:30:56.953Z,912.00
2023-05-05T11:31:56.272Z,1008.00
2023-05-05T11:32:56.278Z,1132.00
2023-05-05T11:33:56.519Z,1161.00
2023-05-05T11:34:56.335Z,1202.00
2023-05-05T11:35:56.434Z,1264.00
2023-05-05T11:36:56.507Z,1310.00
2023-05-05T11:37:56.495Z,1379.00
2023-05-05T11:38:56.580Z,1475.00
2023-05-05T11:39:56.665Z,1600.00
2023-05-05T11:40:56.676Z,1705.00
2023-05-05T11:41:56.753Z,1755.00
2023-05-05T11:42:56.803Z,1811.00
2023-05-05T11:43:56.840Z,1853.00
2023-05-05T11:44:56.946Z,1863.00
2023-05-05T11:45:57.025Z,1891.00
2023-05-05T11:46:57.029Z,1906.00
2023-05-05T11:47:57.230Z,2015.00
2023-05-05T11:48:57.213Z,2050.00
2023-05-05T11:49:57.317Z,2050.00
2023-05-05T11:50:57.328Z,2048.00
2023-05-05T11:51:57.336Z,2011.00
2023-05-05T11:52:57.428Z,1988.00
2023-05-05T11:53:59.020Z,2003.00
2023-05-05T11:54:57.552Z,2001.00
2023-05-05T11:55:57.607Z,2014.00
2023-05-05T11:56:57.681Z,2041.00
2023-05-05T11:57:57.721Z,2048.00
2023-05-05T11:58:57.812Z,2072.00
2023-05-05T11:59:57.849Z,2166.00
2023-05-05T12:00:57.893Z,2194.00
2023-05-05T12:01:57.944Z,2232.00
2023-05-05T12:02:58.194Z,2242.00
2023-05-05T12:03:58.269Z,2235.00
2023-05-05T12:04:58.173Z,2246.00
2023-05-05T12:05:58.156Z,2266.00
2023-05-05T12:06:58.184Z,2280.00
2023-05-05T12:07:58.238Z,2276.00
2023-05-05T12:08:58.302Z,2280.00